sensor_id;sensor_type;location;lat;lon;timestamp;P1;durP1;ratioP1;P2;durP2;ratioP2
51810;SDS011;52468;40.116;18.296;2023-03-15T00:02:08;33.73;;;16.53;;
51810;SDS011;52468;40.116;18.296;2023-03-15T00:04:36;41.23;;;11.30;;
51810;SDS011;52468;40.116;18.296;2023-03-15T00:07:04;35.53;;;13.23;;
51810;SDS011;52468;40.116;18.296;2023-03-15T00:09:32;30.27;;;11.07;;
51810;SDS011;52468;40.116;18.296;2023-03-15T00:12:00;28.70;;;11.13;;
51810;SDS011;52468;40.116;18.296;2023-03-15T00:14:28;29.20;;;9.73;;
51810;SDS011;52468;40.116;18.296;2023-03-15T00:16:57;27.17;;;9.33;;
51810;SDS011;52468;40.116;18.296;2023-03-15T00:19:25;30.77;;;8.40;;
51810;SDS011;52468;40.116;18.296;2023-03-15T00:21:53;23.73;;;10.03;;
51810;SDS011;52468;40.116;18.296;2023-03-15T00:24:21;22.47;;;7.67;;
51810;SDS011;52468;40.116;18.296;2023-03-15T00:26:51;20.10;;;8.40;;
51810;SDS011;52468;40.116;18.296;2023-03-15T00:29:18;28.90;;;9.00;;
51810;SDS011;52468;40.116;18.296;2023-03-15T00:31:46;28.57;;;8.37;;
51810;SDS011;52468;40.116;18.296;2023-03-15T00:34:14;21.87;;;6.73;;
51810;SDS011;52468;40.116;18.296;2023-03-15T00:36:42;14.40;;;4.73;;
51810;SDS011;52468;40.116;18.296;2023-03-15T00:39:10;19.67;;;4.60;;
51810;SDS011;52468;40.116;18.296;2023-03-15T00:41:38;11.97;;;5.07;;
51810;SDS011;52468;40.116;18.296;2023-03-15T00:44:06;18.20;;;4.33;;
51810;SDS011;52468;40.116;18.296;2023-03-15T00:46:34;18.40;;;2.90;;
51810;SDS011;52468;40.116;18.296;2023-03-15T00:49:02;11.10;;;3.23;;
51810;SDS011;52468;40.116;18.296;2023-03-15T00:51:29;11.30;;;4.40;;
51810;SDS011;52468;40.116;18.296;2023-03-15T00:53:58;9.50;;;3.10;;
51810;SDS011;52468;40.116;18.296;2023-03-15T00:56:27;15.53;;;4.30;;
51810;SDS011;52468;40.116;18.296;2023-03-15T00:58:57;26.10;;;4.17;;
51810;SDS011;52468;40.116;18.296;2023-03-15T01:01:26;13.27;;;3.07;;
51810;SDS011;52468;40.116;18.296;2023-03-15T01:03:56;9.50;;;2.93;;
51810;SDS011;52468;40.116;18.296;2023-03-15T01:06:25;20.07;;;4.13;;
51810;SDS011;52468;40.116;18.296;2023-03-15T01:08:54;18.00;;;4.93;;
51810;SDS011;52468;40.116;18.296;2023-03-15T01:11:24;10.97;;;3.23;;
51810;SDS011;52468;40.116;18.296;2023-03-15T01:13:53;10.93;;;3.87;;
51810;SDS011;52468;40.116;18.296;2023-03-15T01:16:23;7.03;;;3.43;;
51810;SDS011;52468;40.116;18.296;2023-03-15T01:18:52;14.33;;;3.67;;
51810;SDS011;52468;40.116;18.296;2023-03-15T01:21:20;18.83;;;3.97;;
51810;SDS011;52468;40.116;18.296;2023-03-15T01:23:49;22.70;;;3.67;;
51810;SDS011;52468;40.116;18.296;2023-03-15T01:26:20;13.30;;;3.27;;
51810;SDS011;52468;40.116;18.296;2023-03-15T01:28:49;21.13;;;3.77;;
51810;SDS011;52468;40.116;18.296;2023-03-15T01:31:20;14.90;;;3.40;;
51810;SDS011;52468;40.116;18.296;2023-03-15T01:33:49;6.83;;;3.13;;
51810;SDS011;52468;40.116;18.296;2023-03-15T01:36:18;18.83;;;4.43;;
51810;SDS011;52468;40.116;18.296;2023-03-15T01:38:46;8.50;;;3.70;;
51810;SDS011;52468;40.116;18.296;2023-03-15T01:41:19;14.50;;;5.15;;
51810;SDS011;52468;40.116;18.296;2023-03-15T01:43:47;12.43;;;3.50;;
51810;SDS011;52468;40.116;18.296;2023-03-15T01:46:21;10.13;;;3.40;;
51810;SDS011;52468;40.116;18.296;2023-03-15T01:54:18;17.53;;;4.97;;
51810;SDS011;52468;40.116;18.296;2023-03-15T01:57:04;8.17;;;2.63;;
51810;SDS011;52468;40.116;18.296;2023-03-15T01:59:43;12.63;;;3.40;;
51810;SDS011;52468;40.116;18.296;2023-03-15T02:02:22;15.05;;;4.45;;
51810;SDS011;52468;40.116;18.296;2023-03-15T02:05:02;13.93;;;4.70;;
51810;SDS011;52468;40.116;18.296;2023-03-15T02:07:37;10.43;;;3.30;;
51810;SDS011;52468;40.116;18.296;2023-03-15T02:10:20;14.70;;;3.60;;
51810;SDS011;52468;40.116;18.296;2023-03-15T02:13:11;9.50;;;5.50;;
51810;SDS011;52468;40.116;18.296;2023-03-15T02:15:45;13.40;;;3.27;;
51810;SDS011;52468;40.116;18.296;2023-03-15T02:18:20;6.13;;;3.07;;
51810;SDS011;52468;40.116;18.296;2023-03-15T02:21:07;14.47;;;3.60;;
51810;SDS011;52468;40.116;18.296;2023-03-15T02:23:47;8.40;;;2.87;;
51810;SDS011;52468;40.116;18.296;2023-03-15T02:26:26;15.37;;;3.20;;
51810;SDS011;52468;40.116;18.296;2023-03-15T02:29:00;6.97;;;3.40;;
51810;SDS011;52468;40.116;18.296;2023-03-15T02:31:28;8.70;;;3.23;;
51810;SDS011;52468;40.116;18.296;2023-03-15T02:34:05;7.00;;;1.97;;
51810;SDS011;52468;40.116;18.296;2023-03-15T02:36:34;14.90;;;3.73;;
51810;SDS011;52468;40.116;18.296;2023-03-15T02:39:22;6.87;;;3.60;;
51810;SDS011;52468;40.116;18.296;2023-03-15T02:41:53;11.60;;;3.93;;
51810;SDS011;52468;40.116;18.296;2023-03-15T02:44:30;12.03;;;4.13;;
51810;SDS011;52468;40.116;18.296;2023-03-15T02:47:01;16.05;;;3.50;;
51810;SDS011;52468;40.116;18.296;2023-03-15T02:52:07;9.70;;;3.10;;
51810;SDS011;52468;40.116;18.296;2023-03-15T02:54:36;13.37;;;4.23;;
51810;SDS011;52468;40.116;18.296;2023-03-15T02:57:07;6.83;;;1.90;;
51810;SDS011;52468;40.116;18.296;2023-03-15T02:59:35;10.40;;;2.97;;
51810;SDS011;52468;40.116;18.296;2023-03-15T03:02:04;14.33;;;3.77;;
51810;SDS011;52468;40.116;18.296;2023-03-15T03:04:33;10.83;;;2.80;;
51810;SDS011;52468;40.116;18.296;2023-03-15T03:07:01;13.37;;;3.30;;
51810;SDS011;52468;40.116;18.296;2023-03-15T03:09:37;8.07;;;2.70;;
51810;SDS011;52468;40.116;18.296;2023-03-15T03:12:06;8.57;;;3.03;;
51810;SDS011;52468;40.116;18.296;2023-03-15T03:14:34;12.07;;;3.13;;
51810;SDS011;52468;40.116;18.296;2023-03-15T03:17:03;12.60;;;3.90;;
51810;SDS011;52468;40.116;18.296;2023-03-15T03:19:31;13.27;;;3.50;;
51810;SDS011;52468;40.116;18.296;2023-03-15T03:21:59;11.17;;;3.30;;
51810;SDS011;52468;40.116;18.296;2023-03-15T03:24:26;12.97;;;3.43;;
51810;SDS011;52468;40.116;18.296;2023-03-15T03:26:54;13.30;;;3.60;;
51810;SDS011;52468;40.116;18.296;2023-03-15T03:29:27;10.53;;;3.17;;
51810;SDS011;52468;40.116;18.296;2023-03-15T03:31:58;9.90;;;4.00;;
51810;SDS011;52468;40.116;18.296;2023-03-15T03:34:26;14.40;;;4.53;;
51810;SDS011;52468;40.116;18.296;2023-03-15T03:36:55;16.77;;;3.73;;
51810;SDS011;52468;40.116;18.296;2023-03-15T03:39:39;10.87;;;2.17;;
51810;SDS011;52468;40.116;18.296;2023-03-15T03:42:07;13.10;;;3.57;;
51810;SDS011;52468;40.116;18.296;2023-03-15T03:44:35;10.23;;;4.67;;
51810;SDS011;52468;40.116;18.296;2023-03-15T03:47:03;8.53;;;3.07;;
51810;SDS011;52468;40.116;18.296;2023-03-15T03:49:31;27.53;;;4.40;;
51810;SDS011;52468;40.116;18.296;2023-03-15T03:51:59;12.30;;;3.10;;
51810;SDS011;52468;40.116;18.296;2023-03-15T03:54:27;13.03;;;3.80;;
51810;SDS011;52468;40.116;18.296;2023-03-15T03:56:56;8.07;;;2.97;;
51810;SDS011;52468;40.116;18.296;2023-03-15T03:59:28;19.07;;;4.50;;
51810;SDS011;52468;40.116;18.296;2023-03-15T04:02:02;10.03;;;3.20;;
51810;SDS011;52468;40.116;18.296;2023-03-15T04:04:30;16.73;;;4.17;;
51810;SDS011;52468;40.116;18.296;2023-03-15T04:06:58;10.43;;;3.13;;
51810;SDS011;52468;40.116;18.296;2023-03-15T04:09:34;12.37;;;3.10;;
51810;SDS011;52468;40.116;18.296;2023-03-15T04:12:04;10.63;;;3.73;;
51810;SDS011;52468;40.116;18.296;2023-03-15T04:14:34;9.07;;;3.50;;
51810;SDS011;52468;40.116;18.296;2023-03-15T04:17:04;9.10;;;2.73;;
51810;SDS011;52468;40.116;18.296;2023-03-15T04:19:35;10.07;;;2.47;;
51810;SDS011;52468;40.116;18.296;2023-03-15T04:22:03;14.93;;;4.00;;
51810;SDS011;52468;40.116;18.296;2023-03-15T04:24:49;6.00;;;1.67;;
51810;SDS011;52468;40.116;18.296;2023-03-15T04:27:38;8.67;;;2.20;;
51810;SDS011;52468;40.116;18.296;2023-03-15T04:30:45;8.03;;;2.37;;
51810;SDS011;52468;40.116;18.296;2023-03-15T04:33:47;9.37;;;3.03;;
51810;SDS011;52468;40.116;18.296;2023-03-15T04:36:31;12.88;;;3.80;;
51810;SDS011;52468;40.116;18.296;2023-03-15T04:39:01;13.27;;;2.50;;
51810;SDS011;52468;40.116;18.296;2023-03-15T04:41:51;9.33;;;3.67;;
51810;SDS011;52468;40.116;18.296;2023-03-15T04:44:50;8.30;;;3.00;;
51810;SDS011;52468;40.116;18.296;2023-03-15T04:47:38;8.87;;;2.93;;
51810;SDS011;52468;40.116;18.296;2023-03-15T04:50:39;11.67;;;4.63;;
51810;SDS011;52468;40.116;18.296;2023-03-15T04:53:07;12.43;;;2.83;;
51810;SDS011;52468;40.116;18.296;2023-03-15T04:55:38;13.23;;;3.87;;
51810;SDS011;52468;40.116;18.296;2023-03-15T04:58:14;16.10;;;3.57;;
51810;SDS011;52468;40.116;18.296;2023-03-15T05:03:38;7.30;;;2.07;;
51810;SDS011;52468;40.116;18.296;2023-03-15T05:06:27;10.53;;;3.70;;
51810;SDS011;52468;40.116;18.296;2023-03-15T05:09:22;6.70;;;3.23;;
51810;SDS011;52468;40.116;18.296;2023-03-15T05:12:12;6.40;;;2.37;;
51810;SDS011;52468;40.116;18.296;2023-03-15T05:14:58;7.87;;;2.60;;
51810;SDS011;52468;40.116;18.296;2023-03-15T05:17:52;7.43;;;2.70;;
51810;SDS011;52468;40.116;18.296;2023-03-15T05:20:38;7.80;;;2.50;;
51810;SDS011;52468;40.116;18.296;2023-03-15T05:23:15;7.30;;;2.77;;
51810;SDS011;52468;40.116;18.296;2023-03-15T05:25:53;12.20;;;3.20;;
51810;SDS011;52468;40.116;18.296;2023-03-15T05:28:45;11.63;;;3.10;;
51810;SDS011;52468;40.116;18.296;2023-03-15T05:31:31;7.03;;;2.47;;
51810;SDS011;52468;40.116;18.296;2023-03-15T05:34:06;12.47;;;3.37;;
51810;SDS011;52468;40.116;18.296;2023-03-15T05:36:53;15.23;;;4.10;;
51810;SDS011;52468;40.116;18.296;2023-03-15T05:39:43;6.97;;;3.23;;
51810;SDS011;52468;40.116;18.296;2023-03-15T05:42:17;6.23;;;2.83;;
51810;SDS011;52468;40.116;18.296;2023-03-15T05:45:21;5.37;;;2.53;;
51810;SDS011;52468;40.116;18.296;2023-03-15T05:48:06;12.63;;;4.33;;
51810;SDS011;52468;40.116;18.296;2023-03-15T05:50:51;7.80;;;2.93;;
51810;SDS011;52468;40.116;18.296;2023-03-15T05:53:42;15.03;;;4.17;;
51810;SDS011;52468;40.116;18.296;2023-03-15T05:56:31;15.53;;;3.87;;
51810;SDS011;52468;40.116;18.296;2023-03-15T05:59:28;12.13;;;2.33;;
51810;SDS011;52468;40.116;18.296;2023-03-15T06:02:15;11.53;;;3.60;;
51810;SDS011;52468;40.116;18.296;2023-03-15T06:04:52;13.23;;;4.17;;
51810;SDS011;52468;40.116;18.296;2023-03-15T06:07:24;6.93;;;3.77;;
51810;SDS011;52468;40.116;18.296;2023-03-15T06:09:52;13.20;;;5.27;;
51810;SDS011;52468;40.116;18.296;2023-03-15T06:12:20;6.40;;;3.20;;
51810;SDS011;52468;40.116;18.296;2023-03-15T06:14:48;4.60;;;2.90;;
51810;SDS011;52468;40.116;18.296;2023-03-15T06:17:16;7.83;;;3.23;;
51810;SDS011;52468;40.116;18.296;2023-03-15T06:19:44;16.30;;;2.67;;
51810;SDS011;52468;40.116;18.296;2023-03-15T06:22:12;12.40;;;3.20;;
51810;SDS011;52468;40.116;18.296;2023-03-15T06:24:50;12.23;;;3.47;;
51810;SDS011;52468;40.116;18.296;2023-03-15T06:27:21;11.33;;;2.57;;
51810;SDS011;52468;40.116;18.296;2023-03-15T06:29:52;10.93;;;3.03;;
51810;SDS011;52468;40.116;18.296;2023-03-15T06:32:21;12.63;;;3.27;;
51810;SDS011;52468;40.116;18.296;2023-03-15T06:34:50;8.23;;;2.67;;
51810;SDS011;52468;40.116;18.296;2023-03-15T06:37:18;9.77;;;2.20;;
51810;SDS011;52468;40.116;18.296;2023-03-15T06:40:07;9.30;;;3.87;;
51810;SDS011;52468;40.116;18.296;2023-03-15T06:42:36;13.47;;;3.90;;
51810;SDS011;52468;40.116;18.296;2023-03-15T06:45:07;6.43;;;2.83;;
51810;SDS011;52468;40.116;18.296;2023-03-15T06:47:36;9.00;;;3.30;;
51810;SDS011;52468;40.116;18.296;2023-03-15T06:50:04;7.53;;;2.60;;
51810;SDS011;52468;40.116;18.296;2023-03-15T06:52:33;8.17;;;3.73;;
51810;SDS011;52468;40.116;18.296;2023-03-15T06:55:00;9.27;;;2.63;;
51810;SDS011;52468;40.116;18.296;2023-03-15T06:57:28;12.70;;;3.37;;
51810;SDS011;52468;40.116;18.296;2023-03-15T06:59:56;11.77;;;3.27;;
51810;SDS011;52468;40.116;18.296;2023-03-15T07:02:24;7.90;;;3.07;;
51810;SDS011;52468;40.116;18.296;2023-03-15T07:04:52;8.03;;;2.93;;
51810;SDS011;52468;40.116;18.296;2023-03-15T07:07:20;6.70;;;2.63;;
51810;SDS011;52468;40.116;18.296;2023-03-15T07:09:48;6.93;;;2.50;;
51810;SDS011;52468;40.116;18.296;2023-03-15T07:12:16;10.53;;;2.87;;
51810;SDS011;52468;40.116;18.296;2023-03-15T07:14:44;11.30;;;2.20;;
51810;SDS011;52468;40.116;18.296;2023-03-15T07:17:12;7.07;;;3.57;;
51810;SDS011;52468;40.116;18.296;2023-03-15T07:19:40;15.80;;;4.67;;
51810;SDS011;52468;40.116;18.296;2023-03-15T07:22:21;5.50;;;2.73;;
51810;SDS011;52468;40.116;18.296;2023-03-15T07:24:49;16.87;;;4.13;;
51810;SDS011;52468;40.116;18.296;2023-03-15T07:27:17;13.57;;;3.70;;
51810;SDS011;52468;40.116;18.296;2023-03-15T07:29:45;9.30;;;3.80;;
51810;SDS011;52468;40.116;18.296;2023-03-15T07:32:13;7.50;;;2.27;;
51810;SDS011;52468;40.116;18.296;2023-03-15T07:34:41;7.93;;;3.63;;
51810;SDS011;52468;40.116;18.296;2023-03-15T07:37:09;6.27;;;2.80;;
51810;SDS011;52468;40.116;18.296;2023-03-15T07:39:37;13.17;;;3.40;;
51810;SDS011;52468;40.116;18.296;2023-03-15T07:42:05;17.20;;;3.73;;
51810;SDS011;52468;40.116;18.296;2023-03-15T07:44:39;10.50;;;3.23;;
51810;SDS011;52468;40.116;18.296;2023-03-15T07:47:07;7.43;;;2.60;;
51810;SDS011;52468;40.116;18.296;2023-03-15T07:49:35;5.53;;;3.17;;
51810;SDS011;52468;40.116;18.296;2023-03-15T07:52:03;11.13;;;3.70;;
51810;SDS011;52468;40.116;18.296;2023-03-15T07:54:31;3.87;;;1.87;;
51810;SDS011;52468;40.116;18.296;2023-03-15T07:57:00;10.63;;;2.40;;
51810;SDS011;52468;40.116;18.296;2023-03-15T07:59:28;8.47;;;2.77;;
51810;SDS011;52468;40.116;18.296;2023-03-15T08:01:56;8.27;;;2.23;;
51810;SDS011;52468;40.116;18.296;2023-03-15T08:04:26;7.13;;;2.30;;
51810;SDS011;52468;40.116;18.296;2023-03-15T08:06:53;11.77;;;2.47;;
51810;SDS011;52468;40.116;18.296;2023-03-15T08:09:21;8.07;;;3.07;;
51810;SDS011;52468;40.116;18.296;2023-03-15T08:11:50;5.77;;;1.87;;
51810;SDS011;52468;40.116;18.296;2023-03-15T08:14:17;6.80;;;1.80;;
51810;SDS011;52468;40.116;18.296;2023-03-15T08:16:45;9.70;;;2.63;;
51810;SDS011;52468;40.116;18.296;2023-03-15T08:19:13;5.33;;;1.77;;
51810;SDS011;52468;40.116;18.296;2023-03-15T08:21:41;3.17;;;1.20;;
51810;SDS011;52468;40.116;18.296;2023-03-15T08:24:11;4.20;;;1.70;;
51810;SDS011;52468;40.116;18.296;2023-03-15T08:26:39;4.90;;;1.40;;
51810;SDS011;52468;40.116;18.296;2023-03-15T08:29:09;11.40;;;2.07;;
51810;SDS011;52468;40.116;18.296;2023-03-15T08:31:37;2.57;;;1.67;;
51810;SDS011;52468;40.116;18.296;2023-03-15T08:34:05;4.70;;;1.17;;
51810;SDS011;52468;40.116;18.296;2023-03-15T08:36:32;4.07;;;0.90;;
51810;SDS011;52468;40.116;18.296;2023-03-15T08:39:00;3.40;;;1.53;;
51810;SDS011;52468;40.116;18.296;2023-03-15T08:41:31;4.60;;;2.23;;
51810;SDS011;52468;40.116;18.296;2023-03-15T08:43:59;7.10;;;1.97;;
51810;SDS011;52468;40.116;18.296;2023-03-15T08:46:27;5.83;;;2.63;;
51810;SDS011;52468;40.116;18.296;2023-03-15T08:48:55;2.73;;;1.07;;
51810;SDS011;52468;40.116;18.296;2023-03-15T08:51:23;6.50;;;1.90;;
51810;SDS011;52468;40.116;18.296;2023-03-15T08:53:52;5.30;;;2.20;;
51810;SDS011;52468;40.116;18.296;2023-03-15T08:56:20;5.17;;;1.70;;
51810;SDS011;52468;40.116;18.296;2023-03-15T08:58:48;3.33;;;1.70;;
51810;SDS011;52468;40.116;18.296;2023-03-15T09:01:16;1.63;;;1.33;;
51810;SDS011;52468;40.116;18.296;2023-03-15T09:03:44;8.20;;;2.70;;
51810;SDS011;52468;40.116;18.296;2023-03-15T09:06:11;4.77;;;1.43;;
51810;SDS011;52468;40.116;18.296;2023-03-15T09:08:39;5.43;;;2.23;;
51810;SDS011;52468;40.116;18.296;2023-03-15T09:11:07;5.70;;;1.37;;
51810;SDS011;52468;40.116;18.296;2023-03-15T09:13:36;2.47;;;1.10;;
51810;SDS011;52468;40.116;18.296;2023-03-15T09:16:04;5.13;;;1.60;;
51810;SDS011;52468;40.116;18.296;2023-03-15T09:18:32;3.87;;;1.40;;
51810;SDS011;52468;40.116;18.296;2023-03-15T09:21:00;5.93;;;1.33;;
51810;SDS011;52468;40.116;18.296;2023-03-15T09:23:28;5.47;;;1.80;;
51810;SDS011;52468;40.116;18.296;2023-03-15T09:25:55;5.20;;;1.30;;
51810;SDS011;52468;40.116;18.296;2023-03-15T09:28:23;8.17;;;1.80;;
51810;SDS011;52468;40.116;18.296;2023-03-15T09:30:54;4.77;;;2.37;;
51810;SDS011;52468;40.116;18.296;2023-03-15T09:33:24;7.87;;;2.23;;
51810;SDS011;52468;40.116;18.296;2023-03-15T09:35:52;7.33;;;1.40;;
51810;SDS011;52468;40.116;18.296;2023-03-15T09:38:20;4.50;;;2.60;;
51810;SDS011;52468;40.116;18.296;2023-03-15T09:40:50;5.93;;;2.43;;
51810;SDS011;52468;40.116;18.296;2023-03-15T09:43:42;4.60;;;1.70;;
51810;SDS011;52468;40.116;18.296;2023-03-15T09:46:25;7.73;;;1.93;;
51810;SDS011;52468;40.116;18.296;2023-03-15T09:49:04;4.73;;;1.70;;
51810;SDS011;52468;40.116;18.296;2023-03-15T09:54:31;4.67;;;2.37;;
51810;SDS011;52468;40.116;18.296;2023-03-15T09:57:13;6.33;;;1.90;;
51810;SDS011;52468;40.116;18.296;2023-03-15T09:59:45;4.87;;;2.63;;
51810;SDS011;52468;40.116;18.296;2023-03-15T10:04:55;7.13;;;1.73;;
51810;SDS011;52468;40.116;18.296;2023-03-15T10:07:32;12.07;;;1.77;;
51810;SDS011;52468;40.116;18.296;2023-03-15T10:10:01;6.37;;;1.70;;
51810;SDS011;52468;40.116;18.296;2023-03-15T10:12:33;3.17;;;1.83;;
51810;SDS011;52468;40.116;18.296;2023-03-15T10:20:27;7.57;;;2.07;;
51810;SDS011;52468;40.116;18.296;2023-03-15T10:25:35;7.43;;;1.90;;
51810;SDS011;52468;40.116;18.296;2023-03-15T10:28:26;7.67;;;2.63;;
51810;SDS011;52468;40.116;18.296;2023-03-15T10:30:59;9.50;;;2.75;;
51810;SDS011;52468;40.116;18.296;2023-03-15T10:33:35;4.25;;;2.55;;
51810;SDS011;52468;40.116;18.296;2023-03-15T10:36:12;4.53;;;1.80;;
51810;SDS011;52468;40.116;18.296;2023-03-15T10:38:43;7.23;;;1.80;;
51810;SDS011;52468;40.116;18.296;2023-03-15T10:41:12;7.67;;;2.00;;
51810;SDS011;52468;40.116;18.296;2023-03-15T10:43:56;6.63;;;1.95;;
51810;SDS011;52468;40.116;18.296;2023-03-15T10:46:27;6.83;;;1.97;;
51810;SDS011;52468;40.116;18.296;2023-03-15T10:48:58;5.80;;;1.90;;
51810;SDS011;52468;40.116;18.296;2023-03-15T10:51:41;3.33;;;1.87;;
51810;SDS011;52468;40.116;18.296;2023-03-15T11:00:00;3.33;;;2.10;;
51810;SDS011;52468;40.116;18.296;2023-03-15T11:02:35;4.77;;;1.70;;
51810;SDS011;52468;40.116;18.296;2023-03-15T11:07:34;2.87;;;1.40;;
51810;SDS011;52468;40.116;18.296;2023-03-15T11:10:04;4.17;;;1.97;;
51810;SDS011;52468;40.116;18.296;2023-03-15T11:12:33;4.07;;;1.70;;
51810;SDS011;52468;40.116;18.296;2023-03-15T11:17:33;4.70;;;1.43;;
51810;SDS011;52468;40.116;18.296;2023-03-15T11:20:27;4.13;;;1.63;;
51810;SDS011;52468;40.116;18.296;2023-03-15T11:23:14;3.77;;;1.30;;
51810;SDS011;52468;40.116;18.296;2023-03-15T11:25:45;7.97;;;2.10;;
51810;SDS011;52468;40.116;18.296;2023-03-15T11:28:17;2.87;;;1.77;;
51810;SDS011;52468;40.116;18.296;2023-03-15T11:30:49;2.87;;;1.13;;
51810;SDS011;52468;40.116;18.296;2023-03-15T11:36:23;4.00;;;1.63;;
51810;SDS011;52468;40.116;18.296;2023-03-15T11:38:57;2.27;;;1.40;;
51810;SDS011;52468;40.116;18.296;2023-03-15T11:41:39;2.47;;;1.27;;
51810;SDS011;52468;40.116;18.296;2023-03-15T11:47:13;6.03;;;1.67;;
51810;SDS011;52468;40.116;18.296;2023-03-15T11:49:50;4.50;;;1.60;;
51810;SDS011;52468;40.116;18.296;2023-03-15T11:52:23;2.07;;;1.00;;
51810;SDS011;52468;40.116;18.296;2023-03-15T11:54:57;4.40;;;1.30;;
51810;SDS011;52468;40.116;18.296;2023-03-15T11:59:55;3.10;;;0.80;;
51810;SDS011;52468;40.116;18.296;2023-03-15T12:04:55;3.03;;;1.23;;
51810;SDS011;52468;40.116;18.296;2023-03-15T12:07:29;1.17;;;0.80;;
51810;SDS011;52468;40.116;18.296;2023-03-15T12:15:01;1.17;;;0.90;;
51810;SDS011;52468;40.116;18.296;2023-03-15T12:17:42;3.20;;;0.97;;
51810;SDS011;52468;40.116;18.296;2023-03-15T12:25:36;2.37;;;0.93;;
51810;SDS011;52468;40.116;18.296;2023-03-15T12:28:27;3.17;;;0.97;;
51810;SDS011;52468;40.116;18.296;2023-03-15T12:31:05;2.90;;;1.20;;
51810;SDS011;52468;40.116;18.296;2023-03-15T12:33:46;2.80;;;2.00;;
51810;SDS011;52468;40.116;18.296;2023-03-15T12:36:25;2.77;;;1.27;;
51810;SDS011;52468;40.116;18.296;2023-03-15T12:39:49;2.70;;;1.23;;
51810;SDS011;52468;40.116;18.296;2023-03-15T12:42:06;4.57;;;1.57;;
51810;SDS011;52468;40.116;18.296;2023-03-15T12:53:24;3.40;;;1.97;;
51810;SDS011;52468;40.116;18.296;2023-03-15T12:56:18;5.27;;;1.73;;
51810;SDS011;52468;40.116;18.296;2023-03-15T12:59:09;2.87;;;1.40;;
51810;SDS011;52468;40.116;18.296;2023-03-15T13:01:46;3.50;;;0.87;;
51810;SDS011;52468;40.116;18.296;2023-03-15T13:04:15;2.00;;;0.80;;
51810;SDS011;52468;40.116;18.296;2023-03-15T13:09:56;1.63;;;1.30;;
51810;SDS011;52468;40.116;18.296;2023-03-15T13:12:44;2.67;;;1.23;;
51810;SDS011;52468;40.116;18.296;2023-03-15T13:15:44;2.63;;;1.00;;
51810;SDS011;52468;40.116;18.296;2023-03-15T13:18:24;3.60;;;1.00;;
51810;SDS011;52468;40.116;18.296;2023-03-15T13:20:59;2.77;;;0.80;;
51810;SDS011;52468;40.116;18.296;2023-03-15T13:23:52;3.43;;;1.00;;
51810;SDS011;52468;40.116;18.296;2023-03-15T13:26:30;2.87;;;1.17;;
51810;SDS011;52468;40.116;18.296;2023-03-15T13:29:17;2.90;;;1.37;;
51810;SDS011;52468;40.116;18.296;2023-03-15T13:32:11;3.93;;;1.97;;
51810;SDS011;52468;40.116;18.296;2023-03-15T13:34:43;1.83;;;0.80;;
51810;SDS011;52468;40.116;18.296;2023-03-15T13:37:23;3.80;;;0.70;;
51810;SDS011;52468;40.116;18.296;2023-03-15T13:40:01;3.97;;;0.93;;
51810;SDS011;52468;40.116;18.296;2023-03-15T13:42:37;3.17;;;1.10;;
51810;SDS011;52468;40.116;18.296;2023-03-15T13:45:13;2.60;;;1.38;;
51810;SDS011;52468;40.116;18.296;2023-03-15T13:47:43;3.63;;;1.20;;
51810;SDS011;52468;40.116;18.296;2023-03-15T13:50:16;1.77;;;1.20;;
51810;SDS011;52468;40.116;18.296;2023-03-15T13:52:45;2.40;;;1.20;;
51810;SDS011;52468;40.116;18.296;2023-03-15T13:55:15;3.50;;;1.73;;
51810;SDS011;52468;40.116;18.296;2023-03-15T13:57:52;3.63;;;1.07;;
51810;SDS011;52468;40.116;18.296;2023-03-15T14:00:23;3.00;;;1.00;;
51810;SDS011;52468;40.116;18.296;2023-03-15T14:02:54;1.80;;;1.10;;
51810;SDS011;52468;40.116;18.296;2023-03-15T14:05:29;1.20;;;0.40;;
51810;SDS011;52468;40.116;18.296;2023-03-15T14:08:00;0.60;;;0.40;;
51810;SDS011;52468;40.116;18.296;2023-03-15T14:10:34;1.17;;;0.90;;
51810;SDS011;52468;40.116;18.296;2023-03-15T14:15:55;1.67;;;0.60;;
51810;SDS011;52468;40.116;18.296;2023-03-15T14:18:34;1.03;;;0.90;;
51810;SDS011;52468;40.116;18.296;2023-03-15T14:23:43;3.03;;;0.90;;
51810;SDS011;52468;40.116;18.296;2023-03-15T14:26:19;4.07;;;1.30;;
51810;SDS011;52468;40.116;18.296;2023-03-15T14:31:29;3.30;;;0.80;;
51810;SDS011;52468;40.116;18.296;2023-03-15T14:34:46;4.77;;;1.17;;
51810;SDS011;52468;40.116;18.296;2023-03-15T14:37:22;4.40;;;2.70;;
51810;SDS011;52468;40.116;18.296;2023-03-15T14:39:51;9.90;;;5.27;;
51810;SDS011;52468;40.116;18.296;2023-03-15T14:42:30;7.90;;;4.40;;
51810;SDS011;52468;40.116;18.296;2023-03-15T14:44:58;5.97;;;3.40;;
51810;SDS011;52468;40.116;18.296;2023-03-15T14:47:26;8.97;;;6.00;;
51810;SDS011;52468;40.116;18.296;2023-03-15T14:49:54;4.17;;;2.60;;
51810;SDS011;52468;40.116;18.296;2023-03-15T14:52:22;6.57;;;2.43;;
51810;SDS011;52468;40.116;18.296;2023-03-15T14:54:53;5.93;;;1.60;;
51810;SDS011;52468;40.116;18.296;2023-03-15T14:57:21;3.90;;;1.97;;
51810;SDS011;52468;40.116;18.296;2023-03-15T14:59:48;4.27;;;2.27;;
51810;SDS011;52468;40.116;18.296;2023-03-15T15:02:17;1.73;;;0.93;;
51810;SDS011;52468;40.116;18.296;2023-03-15T15:04:44;2.87;;;1.37;;
51810;SDS011;52468;40.116;18.296;2023-03-15T15:07:14;3.47;;;1.00;;
51810;SDS011;52468;40.116;18.296;2023-03-15T15:09:47;3.33;;;0.90;;
51810;SDS011;52468;40.116;18.296;2023-03-15T15:12:16;4.15;;;1.00;;
51810;SDS011;52468;40.116;18.296;2023-03-15T15:14:45;1.87;;;0.87;;
51810;SDS011;52468;40.116;18.296;2023-03-15T15:17:12;1.93;;;0.87;;
51810;SDS011;52468;40.116;18.296;2023-03-15T15:19:40;4.90;;;1.87;;
51810;SDS011;52468;40.116;18.296;2023-03-15T15:22:09;3.50;;;1.40;;
51810;SDS011;52468;40.116;18.296;2023-03-15T15:24:38;2.83;;;1.27;;
51810;SDS011;52468;40.116;18.296;2023-03-15T15:27:07;4.37;;;1.00;;
51810;SDS011;52468;40.116;18.296;2023-03-15T15:29:36;1.63;;;1.00;;
51810;SDS011;52468;40.116;18.296;2023-03-15T15:32:04;3.37;;;2.20;;
51810;SDS011;52468;40.116;18.296;2023-03-15T15:34:32;2.90;;;1.60;;
51810;SDS011;52468;40.116;18.296;2023-03-15T15:37:00;4.63;;;2.07;;
51810;SDS011;52468;40.116;18.296;2023-03-15T15:39:28;8.53;;;2.20;;
51810;SDS011;52468;40.116;18.296;2023-03-15T15:41:56;2.07;;;1.10;;
51810;SDS011;52468;40.116;18.296;2023-03-15T15:44:23;5.17;;;2.27;;
51810;SDS011;52468;40.116;18.296;2023-03-15T15:46:52;7.53;;;2.77;;
51810;SDS011;52468;40.116;18.296;2023-03-15T15:49:20;4.90;;;2.13;;
51810;SDS011;52468;40.116;18.296;2023-03-15T15:51:48;7.30;;;3.37;;
51810;SDS011;52468;40.116;18.296;2023-03-15T15:54:17;8.77;;;2.40;;
51810;SDS011;52468;40.116;18.296;2023-03-15T15:56:48;4.53;;;3.00;;
51810;SDS011;52468;40.116;18.296;2023-03-15T15:59:18;4.27;;;2.77;;
51810;SDS011;52468;40.116;18.296;2023-03-15T16:01:47;8.30;;;2.53;;
51810;SDS011;52468;40.116;18.296;2023-03-15T16:04:26;1.67;;;1.50;;
51810;SDS011;52468;40.116;18.296;2023-03-15T16:06:55;10.70;;;2.13;;
51810;SDS011;52468;40.116;18.296;2023-03-15T16:09:26;1.50;;;0.80;;
51810;SDS011;52468;40.116;18.296;2023-03-15T16:11:56;1.87;;;1.00;;
51810;SDS011;52468;40.116;18.296;2023-03-15T16:14:24;2.77;;;1.40;;
51810;SDS011;52468;40.116;18.296;2023-03-15T16:16:52;3.43;;;1.50;;
51810;SDS011;52468;40.116;18.296;2023-03-15T16:19:20;2.43;;;0.90;;
51810;SDS011;52468;40.116;18.296;2023-03-15T16:21:48;1.27;;;0.77;;
51810;SDS011;52468;40.116;18.296;2023-03-15T16:24:25;1.80;;;0.90;;